sensor_id;sensor_type;location;lat;lon;timestamp;P1;durP1;ratioP1;P2;durP2;ratioP2
21148;SDS011;10732;51.472;6.466;2023-12-20T00:00:13;24.95;;;14.13;;
21148;SDS011;10732;51.472;6.466;2023-12-20T00:02:39;25.13;;;14.75;;
21148;SDS011;10732;51.472;6.466;2023-12-20T00:05:05;25.08;;;14.40;;
21148;SDS011;10732;51.472;6.466;2023-12-20T00:07:31;23.48;;;13.70;;
21148;SDS011;10732;51.472;6.466;2023-12-20T00:09:56;26.88;;;14.43;;
21148;SDS011;10732;51.472;6.466;2023-12-20T00:12:22;26.67;;;14.65;;
21148;SDS011;10732;51.472;6.466;2023-12-20T00:14:47;26.05;;;14.65;;
21148;SDS011;10732;51.472;6.466;2023-12-20T00:17:13;24.38;;;14.32;;
21148;SDS011;10732;51.472;6.466;2023-12-20T00:19:38;23.90;;;14.38;;
21148;SDS011;10732;51.472;6.466;2023-12-20T00:22:04;25.10;;;13.32;;
21148;SDS011;10732;51.472;6.466;2023-12-20T00:24:30;23.33;;;14.30;;
21148;SDS011;10732;51.472;6.466;2023-12-20T00:26:55;28.15;;;15.20;;
21148;SDS011;10732;51.472;6.466;2023-12-20T00:29:21;26.70;;;14.60;;
21148;SDS011;10732;51.472;6.466;2023-12-20T00:31:46;27.23;;;14.50;;
21148;SDS011;10732;51.472;6.466;2023-12-20T00:34:12;25.92;;;14.80;;
21148;SDS011;10732;51.472;6.466;2023-12-20T00:36:37;29.73;;;15.80;;
21148;SDS011;10732;51.472;6.466;2023-12-20T00:39:03;25.40;;;14.57;;
21148;SDS011;10732;51.472;6.466;2023-12-20T00:41:29;22.65;;;14.63;;
21148;SDS011;10732;51.472;6.466;2023-12-20T00:43:54;28.90;;;14.30;;
21148;SDS011;10732;51.472;6.466;2023-12-20T00:46:20;28.00;;;14.52;;
21148;SDS011;10732;51.472;6.466;2023-12-20T00:48:45;25.00;;;15.13;;
21148;SDS011;10732;51.472;6.466;2023-12-20T00:51:11;23.38;;;13.68;;
21148;SDS011;10732;51.472;6.466;2023-12-20T00:53:37;26.08;;;13.90;;
21148;SDS011;10732;51.472;6.466;2023-12-20T00:56:02;23.35;;;12.55;;
21148;SDS011;10732;51.472;6.466;2023-12-20T00:58:28;25.08;;;11.85;;
21148;SDS011;10732;51.472;6.466;2023-12-20T01:00:53;21.38;;;12.23;;
21148;SDS011;10732;51.472;6.466;2023-12-20T01:03:19;28.90;;;11.95;;
21148;SDS011;10732;51.472;6.466;2023-12-20T01:05:44;24.98;;;11.02;;
21148;SDS011;10732;51.472;6.466;2023-12-20T01:08:10;24.73;;;12.05;;
21148;SDS011;10732;51.472;6.466;2023-12-20T01:10:36;22.30;;;13.02;;
21148;SDS011;10732;51.472;6.466;2023-12-20T01:13:01;25.23;;;11.98;;
21148;SDS011;10732;51.472;6.466;2023-12-20T01:15:27;23.63;;;11.40;;
21148;SDS011;10732;51.472;6.466;2023-12-20T01:17:53;24.90;;;10.65;;
21148;SDS011;10732;51.472;6.466;2023-12-20T01:20:18;22.40;;;10.93;;
21148;SDS011;10732;51.472;6.466;2023-12-20T01:22:45;25.60;;;10.38;;
21148;SDS011;10732;51.472;6.466;2023-12-20T01:25:11;21.23;;;11.23;;
21148;SDS011;10732;51.472;6.466;2023-12-20T01:27:37;20.80;;;10.73;;
21148;SDS011;10732;51.472;6.466;2023-12-20T01:30:03;18.80;;;9.73;;
21148;SDS011;10732;51.472;6.466;2023-12-20T01:32:29;25.42;;;10.68;;
21148;SDS011;10732;51.472;6.466;2023-12-20T01:34:55;30.38;;;11.50;;
21148;SDS011;10732;51.472;6.466;2023-12-20T01:37:20;22.88;;;10.55;;
21148;SDS011;10732;51.472;6.466;2023-12-20T01:39:48;25.85;;;11.27;;
21148;SDS011;10732;51.472;6.466;2023-12-20T01:42:14;22.70;;;12.00;;
21148;SDS011;10732;51.472;6.466;2023-12-20T01:44:39;23.67;;;11.05;;
21148;SDS011;10732;51.472;6.466;2023-12-20T01:47:05;26.77;;;11.57;;
21148;SDS011;10732;51.472;6.466;2023-12-20T01:49:31;23.27;;;12.40;;
21148;SDS011;10732;51.472;6.466;2023-12-20T01:51:57;26.05;;;12.48;;
21148;SDS011;10732;51.472;6.466;2023-12-20T01:54:22;27.17;;;12.23;;
21148;SDS011;10732;51.472;6.466;2023-12-20T01:56:48;26.52;;;11.57;;
21148;SDS011;10732;51.472;6.466;2023-12-20T01:59:15;23.02;;;11.60;;
21148;SDS011;10732;51.472;6.466;2023-12-20T02:01:41;27.42;;;11.38;;
21148;SDS011;10732;51.472;6.466;2023-12-20T02:04:07;27.02;;;10.50;;
21148;SDS011;10732;51.472;6.466;2023-12-20T02:06:33;27.08;;;11.60;;
21148;SDS011;10732;51.472;6.466;2023-12-20T02:08:59;25.30;;;10.60;;
21148;SDS011;10732;51.472;6.466;2023-12-20T02:11:25;21.55;;;9.95;;
21148;SDS011;10732;51.472;6.466;2023-12-20T02:13:51;33.30;;;10.35;;
21148;SDS011;10732;51.472;6.466;2023-12-20T02:16:18;20.95;;;9.40;;
21148;SDS011;10732;51.472;6.466;2023-12-20T02:18:43;20.00;;;8.57;;
21148;SDS011;10732;51.472;6.466;2023-12-20T02:21:09;16.35;;;7.72;;
21148;SDS011;10732;51.472;6.466;2023-12-20T02:23:35;21.60;;;6.95;;
21148;SDS011;10732;51.472;6.466;2023-12-20T02:26:01;23.90;;;6.72;;
21148;SDS011;10732;51.472;6.466;2023-12-20T02:28:27;19.08;;;6.60;;
21148;SDS011;10732;51.472;6.466;2023-12-20T02:30:53;20.58;;;6.15;;
21148;SDS011;10732;51.472;6.466;2023-12-20T02:33:18;19.13;;;5.57;;
21148;SDS011;10732;51.472;6.466;2023-12-20T02:35:44;23.15;;;6.32;;
21148;SDS011;10732;51.472;6.466;2023-12-20T02:38:09;19.48;;;6.00;;
21148;SDS011;10732;51.472;6.466;2023-12-20T02:40:35;20.90;;;6.00;;
21148;SDS011;10732;51.472;6.466;2023-12-20T02:43:01;20.42;;;5.57;;
21148;SDS011;10732;51.472;6.466;2023-12-20T02:45:26;16.20;;;4.95;;
21148;SDS011;10732;51.472;6.466;2023-12-20T02:47:52;17.10;;;5.60;;
21148;SDS011;10732;51.472;6.466;2023-12-20T02:50:18;14.48;;;5.20;;
21148;SDS011;10732;51.472;6.466;2023-12-20T02:52:44;20.50;;;5.30;;
21148;SDS011;10732;51.472;6.466;2023-12-20T02:55:10;18.17;;;5.07;;
21148;SDS011;10732;51.472;6.466;2023-12-20T02:57:36;20.70;;;5.25;;
21148;SDS011;10732;51.472;6.466;2023-12-20T03:00:06;26.65;;;5.78;;
21148;SDS011;10732;51.472;6.466;2023-12-20T03:02:35;23.77;;;6.13;;
21148;SDS011;10732;51.472;6.466;2023-12-20T03:05:01;15.20;;;4.72;;
21148;SDS011;10732;51.472;6.466;2023-12-20T03:07:27;17.58;;;5.05;;
21148;SDS011;10732;51.472;6.466;2023-12-20T03:09:53;20.20;;;4.80;;
21148;SDS011;10732;51.472;6.466;2023-12-20T03:12:18;23.73;;;4.93;;
21148;SDS011;10732;51.472;6.466;2023-12-20T03:14:44;19.23;;;4.60;;
21148;SDS011;10732;51.472;6.466;2023-12-20T03:17:09;14.63;;;4.60;;
21148;SDS011;10732;51.472;6.466;2023-12-20T03:19:35;15.63;;;4.45;;
21148;SDS011;10732;51.472;6.466;2023-12-20T03:22:01;17.55;;;4.38;;
21148;SDS011;10732;51.472;6.466;2023-12-20T03:24:26;19.02;;;4.65;;
21148;SDS011;10732;51.472;6.466;2023-12-20T03:26:52;21.05;;;4.35;;
21148;SDS011;10732;51.472;6.466;2023-12-20T03:29:18;21.80;;;5.03;;
21148;SDS011;10732;51.472;6.466;2023-12-20T03:31:43;17.98;;;4.63;;
21148;SDS011;10732;51.472;6.466;2023-12-20T03:34:09;21.48;;;4.30;;
21148;SDS011;10732;51.472;6.466;2023-12-20T03:36:35;16.70;;;4.90;;
21148;SDS011;10732;51.472;6.466;2023-12-20T03:39:01;20.30;;;5.00;;
21148;SDS011;10732;51.472;6.466;2023-12-20T03:41:27;19.52;;;5.07;;
21148;SDS011;10732;51.472;6.466;2023-12-20T03:43:52;16.98;;;4.68;;
21148;SDS011;10732;51.472;6.466;2023-12-20T03:46:18;14.80;;;4.72;;
21148;SDS011;10732;51.472;6.466;2023-12-20T03:48:43;16.40;;;5.32;;
21148;SDS011;10732;51.472;6.466;2023-12-20T03:51:09;25.00;;;4.90;;
21148;SDS011;10732;51.472;6.466;2023-12-20T03:53:34;21.98;;;5.13;;
21148;SDS011;10732;51.472;6.466;2023-12-20T03:56:00;23.33;;;5.28;;
21148;SDS011;10732;51.472;6.466;2023-12-20T03:58:25;18.13;;;5.25;;
21148;SDS011;10732;51.472;6.466;2023-12-20T04:00:51;17.50;;;4.80;;
21148;SDS011;10732;51.472;6.466;2023-12-20T04:03:16;22.10;;;5.50;;
21148;SDS011;10732;51.472;6.466;2023-12-20T04:05:42;22.73;;;5.70;;
21148;SDS011;10732;51.472;6.466;2023-12-20T04:08:07;26.70;;;5.97;;
21148;SDS011;10732;51.472;6.466;2023-12-20T04:10:33;21.15;;;5.65;;
21148;SDS011;10732;51.472;6.466;2023-12-20T04:12:58;22.15;;;5.68;;
21148;SDS011;10732;51.472;6.466;2023-12-20T04:15:24;21.67;;;6.00;;
21148;SDS011;10732;51.472;6.466;2023-12-20T04:17:49;21.02;;;6.15;;
21148;SDS011;10732;51.472;6.466;2023-12-20T04:20:15;32.75;;;6.32;;
21148;SDS011;10732;51.472;6.466;2023-12-20T04:22:40;22.90;;;6.45;;
21148;SDS011;10732;51.472;6.466;2023-12-20T04:25:07;25.52;;;6.20;;
21148;SDS011;10732;51.472;6.466;2023-12-20T04:27:33;21.13;;;5.90;;
21148;SDS011;10732;51.472;6.466;2023-12-20T04:29:58;18.15;;;6.40;;
21148;SDS011;10732;51.472;6.466;2023-12-20T04:32:24;25.58;;;6.53;;
21148;SDS011;10732;51.472;6.466;2023-12-20T04:34:50;19.52;;;6.07;;
21148;SDS011;10732;51.472;6.466;2023-12-20T04:37:15;20.73;;;6.65;;
21148;SDS011;10732;51.472;6.466;2023-12-20T04:39:41;23.52;;;6.45;;
21148;SDS011;10732;51.472;6.466;2023-12-20T04:42:06;21.92;;;7.18;;
21148;SDS011;10732;51.472;6.466;2023-12-20T04:44:32;22.15;;;6.72;;
21148;SDS011;10732;51.472;6.466;2023-12-20T04:46:57;23.05;;;7.70;;
21148;SDS011;10732;51.472;6.466;2023-12-20T04:49:23;21.13;;;7.07;;
21148;SDS011;10732;51.472;6.466;2023-12-20T04:51:49;21.33;;;7.50;;
21148;SDS011;10732;51.472;6.466;2023-12-20T04:54:14;30.00;;;7.70;;
21148;SDS011;10732;51.472;6.466;2023-12-20T04:56:40;20.23;;;7.60;;
21148;SDS011;10732;51.472;6.466;2023-12-20T04:59:06;21.63;;;7.93;;
21148;SDS011;10732;51.472;6.466;2023-12-20T05:01:32;33.35;;;9.15;;
21148;SDS011;10732;51.472;6.466;2023-12-20T05:03:57;23.55;;;8.35;;
21148;SDS011;10732;51.472;6.466;2023-12-20T05:06:23;24.90;;;8.48;;
21148;SDS011;10732;51.472;6.466;2023-12-20T05:08:49;21.88;;;8.32;;
21148;SDS011;10732;51.472;6.466;2023-12-20T05:11:15;28.05;;;8.65;;
21148;SDS011;10732;51.472;6.466;2023-12-20T05:13:41;27.98;;;8.75;;
21148;SDS011;10732;51.472;6.466;2023-12-20T05:16:07;30.70;;;8.32;;
21148;SDS011;10732;51.472;6.466;2023-12-20T05:18:33;31.20;;;8.75;;
21148;SDS011;10732;51.472;6.466;2023-12-20T05:20:59;24.70;;;7.63;;
21148;SDS011;10732;51.472;6.466;2023-12-20T05:23:25;20.73;;;7.60;;
21148;SDS011;10732;51.472;6.466;2023-12-20T05:25:50;30.63;;;7.55;;
21148;SDS011;10732;51.472;6.466;2023-12-20T05:28:16;23.88;;;7.72;;
21148;SDS011;10732;51.472;6.466;2023-12-20T05:30:42;21.50;;;7.13;;
21148;SDS011;10732;51.472;6.466;2023-12-20T05:33:08;21.00;;;6.97;;
21148;SDS011;10732;51.472;6.466;2023-12-20T05:35:34;22.73;;;7.07;;
21148;SDS011;10732;51.472;6.466;2023-12-20T05:37:59;17.67;;;7.20;;
21148;SDS011;10732;51.472;6.466;2023-12-20T05:40:25;20.73;;;7.40;;
21148;SDS011;10732;51.472;6.466;2023-12-20T05:42:50;23.65;;;7.72;;
21148;SDS011;10732;51.472;6.466;2023-12-20T05:45:16;20.25;;;6.88;;
21148;SDS011;10732;51.472;6.466;2023-12-20T05:47:41;21.85;;;6.70;;
21148;SDS011;10732;51.472;6.466;2023-12-20T05:50:07;25.20;;;6.32;;
21148;SDS011;10732;51.472;6.466;2023-12-20T05:52:33;20.85;;;7.00;;
21148;SDS011;10732;51.472;6.466;2023-12-20T05:54:59;25.60;;;7.53;;
21148;SDS011;10732;51.472;6.466;2023-12-20T05:57:26;23.10;;;6.75;;
21148;SDS011;10732;51.472;6.466;2023-12-20T05:59:52;24.25;;;6.88;;
21148;SDS011;10732;51.472;6.466;2023-12-20T06:02:18;20.33;;;6.68;;
21148;SDS011;10732;51.472;6.466;2023-12-20T06:04:43;27.52;;;7.05;;
21148;SDS011;10732;51.472;6.466;2023-12-20T06:07:11;23.83;;;7.22;;
21148;SDS011;10732;51.472;6.466;2023-12-20T06:09:37;22.92;;;7.65;;
21148;SDS011;10732;51.472;6.466;2023-12-20T06:12:03;25.98;;;8.10;;
21148;SDS011;10732;51.472;6.466;2023-12-20T06:14:29;23.35;;;7.57;;
21148;SDS011;10732;51.472;6.466;2023-12-20T06:16:55;26.75;;;7.40;;
21148;SDS011;10732;51.472;6.466;2023-12-20T06:19:21;19.13;;;7.20;;
21148;SDS011;10732;51.472;6.466;2023-12-20T06:21:47;17.35;;;6.97;;
21148;SDS011;10732;51.472;6.466;2023-12-20T06:24:12;24.40;;;7.22;;
21148;SDS011;10732;51.472;6.466;2023-12-20T06:26:38;24.50;;;7.38;;
21148;SDS011;10732;51.472;6.466;2023-12-20T06:29:03;23.65;;;6.95;;
21148;SDS011;10732;51.472;6.466;2023-12-20T06:31:29;22.10;;;6.70;;
21148;SDS011;10732;51.472;6.466;2023-12-20T06:33:54;23.45;;;6.80;;
21148;SDS011;10732;51.472;6.466;2023-12-20T06:36:22;21.10;;;6.88;;
21148;SDS011;10732;51.472;6.466;2023-12-20T06:38:49;16.77;;;6.22;;
21148;SDS011;10732;51.472;6.466;2023-12-20T06:41:15;17.42;;;6.63;;
21148;SDS011;10732;51.472;6.466;2023-12-20T06:43:41;23.98;;;6.18;;
21148;SDS011;10732;51.472;6.466;2023-12-20T06:46:07;20.50;;;6.75;;
21148;SDS011;10732;51.472;6.466;2023-12-20T06:48:32;21.48;;;6.78;;
21148;SDS011;10732;51.472;6.466;2023-12-20T06:50:59;28.25;;;6.50;;
21148;SDS011;10732;51.472;6.466;2023-12-20T06:53:27;21.63;;;6.30;;
21148;SDS011;10732;51.472;6.466;2023-12-20T06:55:52;18.25;;;6.32;;
21148;SDS011;10732;51.472;6.466;2023-12-20T06:58:18;19.48;;;5.78;;
21148;SDS011;10732;51.472;6.466;2023-12-20T07:00:43;18.20;;;6.18;;
21148;SDS011;10732;51.472;6.466;2023-12-20T07:03:09;24.48;;;6.47;;
21148;SDS011;10732;51.472;6.466;2023-12-20T07:05:35;26.70;;;6.72;;
21148;SDS011;10732;51.472;6.466;2023-12-20T07:08:00;24.33;;;6.32;;
21148;SDS011;10732;51.472;6.466;2023-12-20T07:10:26;21.10;;;6.03;;
21148;SDS011;10732;51.472;6.466;2023-12-20T07:12:51;21.25;;;5.68;;
21148;SDS011;10732;51.472;6.466;2023-12-20T07:15:20;26.67;;;6.20;;
21148;SDS011;10732;51.472;6.466;2023-12-20T07:17:46;20.30;;;5.95;;
21148;SDS011;10732;51.472;6.466;2023-12-20T07:20:11;26.10;;;6.45;;
21148;SDS011;10732;51.472;6.466;2023-12-20T07:22:37;17.58;;;5.97;;
21148;SDS011;10732;51.472;6.466;2023-12-20T07:25:03;19.98;;;6.10;;
21148;SDS011;10732;51.472;6.466;2023-12-20T07:27:28;21.65;;;5.35;;
21148;SDS011;10732;51.472;6.466;2023-12-20T07:29:54;20.02;;;5.90;;
21148;SDS011;10732;51.472;6.466;2023-12-20T07:32:19;23.80;;;6.45;;
21148;SDS011;10732;51.472;6.466;2023-12-20T07:34:45;19.23;;;5.50;;
21148;SDS011;10732;51.472;6.466;2023-12-20T07:37:10;21.65;;;6.07;;
21148;SDS011;10732;51.472;6.466;2023-12-20T07:39:37;24.35;;;5.82;;
21148;SDS011;10732;51.472;6.466;2023-12-20T07:42:05;27.70;;;5.97;;
21148;SDS011;10732;51.472;6.466;2023-12-20T07:44:31;21.42;;;6.15;;
21148;SDS011;10732;51.472;6.466;2023-12-20T07:46:56;18.75;;;5.50;;
21148;SDS011;10732;51.472;6.466;2023-12-20T07:49:22;19.23;;;5.55;;
21148;SDS011;10732;51.472;6.466;2023-12-20T07:51:48;15.85;;;4.72;;
21148;SDS011;10732;51.472;6.466;2023-12-20T07:54:14;24.55;;;5.25;;
21148;SDS011;10732;51.472;6.466;2023-12-20T07:56:40;23.25;;;5.72;;
21148;SDS011;10732;51.472;6.466;2023-12-20T07:59:06;22.52;;;5.95;;
21148;SDS011;10732;51.472;6.466;2023-12-20T08:01:32;22.35;;;5.20;;
21148;SDS011;10732;51.472;6.466;2023-12-20T08:03:58;23.15;;;5.78;;
21148;SDS011;10732;51.472;6.466;2023-12-20T08:06:23;21.05;;;4.78;;
21148;SDS011;10732;51.472;6.466;2023-12-20T08:08:49;21.33;;;5.28;;
21148;SDS011;10732;51.472;6.466;2023-12-20T08:11:14;21.83;;;4.90;;
21148;SDS011;10732;51.472;6.466;2023-12-20T08:13:40;18.33;;;5.25;;
21148;SDS011;10732;51.472;6.466;2023-12-20T08:16:05;20.63;;;4.75;;
21148;SDS011;10732;51.472;6.466;2023-12-20T08:18:31;21.95;;;5.82;;
21148;SDS011;10732;51.472;6.466;2023-12-20T08:20:56;21.95;;;5.78;;
21148;SDS011;10732;51.472;6.466;2023-12-20T08:23:22;18.50;;;4.95;;
21148;SDS011;10732;51.472;6.466;2023-12-20T08:25:48;16.92;;;4.72;;
21148;SDS011;10732;51.472;6.466;2023-12-20T08:28:14;20.65;;;5.00;;
21148;SDS011;10732;51.472;6.466;2023-12-20T08:30:40;18.38;;;4.90;;
21148;SDS011;10732;51.472;6.466;2023-12-20T08:33:06;16.20;;;4.88;;
21148;SDS011;10732;51.472;6.466;2023-12-20T08:35:36;18.95;;;4.35;;
21148;SDS011;10732;51.472;6.466;2023-12-20T08:38:01;23.60;;;5.38;;
21148;SDS011;10732;51.472;6.466;2023-12-20T08:40:29;22.77;;;4.90;;
21148;SDS011;10732;51.472;6.466;2023-12-20T08:42:54;18.05;;;4.88;;
21148;SDS011;10732;51.472;6.466;2023-12-20T08:45:20;26.77;;;5.28;;
21148;SDS011;10732;51.472;6.466;2023-12-20T08:47:45;23.25;;;5.05;;
21148;SDS011;10732;51.472;6.466;2023-12-20T08:50:11;15.45;;;4.40;;
21148;SDS011;10732;51.472;6.466;2023-12-20T08:52:37;17.15;;;5.05;;
21148;SDS011;10732;51.472;6.466;2023-12-20T08:55:03;20.45;;;4.93;;
21148;SDS011;10732;51.472;6.466;2023-12-20T08:57:28;21.58;;;4.78;;
21148;SDS011;10732;51.472;6.466;2023-12-20T08:59:54;16.15;;;4.93;;
21148;SDS011;10732;51.472;6.466;2023-12-20T09:02:20;18.23;;;4.70;;
21148;SDS011;10732;51.472;6.466;2023-12-20T09:04:45;15.73;;;4.85;;
21148;SDS011;10732;51.472;6.466;2023-12-20T09:07:23;13.25;;;4.65;;
21148;SDS011;10732;51.472;6.466;2023-12-20T09:09:50;20.17;;;5.10;;
21148;SDS011;10732;51.472;6.466;2023-12-20T09:12:19;21.42;;;5.60;;
21148;SDS011;10732;51.472;6.466;2023-12-20T09:14:45;18.50;;;5.60;;
21148;SDS011;10732;51.472;6.466;2023-12-20T09:17:12;16.60;;;4.97;;
21148;SDS011;10732;51.472;6.466;2023-12-20T09:19:37;20.50;;;5.28;;
21148;SDS011;10732;51.472;6.466;2023-12-20T09:22:04;22.02;;;5.32;;
21148;SDS011;10732;51.472;6.466;2023-12-20T09:24:30;19.23;;;5.28;;
21148;SDS011;10732;51.472;6.466;2023-12-20T09:26:56;17.00;;;4.50;;
21148;SDS011;10732;51.472;6.466;2023-12-20T09:29:22;23.38;;;4.88;;
21148;SDS011;10732;51.472;6.466;2023-12-20T09:31:48;12.63;;;4.32;;
21148;SDS011;10732;51.472;6.466;2023-12-20T09:34:15;12.02;;;4.32;;
21148;SDS011;10732;51.472;6.466;2023-12-20T09:36:40;17.77;;;4.75;;
21148;SDS011;10732;51.472;6.466;2023-12-20T09:39:11;18.75;;;4.15;;
21148;SDS011;10732;51.472;6.466;2023-12-20T09:41:38;15.90;;;4.68;;
21148;SDS011;10732;51.472;6.466;2023-12-20T09:44:08;18.45;;;4.13;;
21148;SDS011;10732;51.472;6.466;2023-12-20T09:46:42;11.40;;;3.90;;
21148;SDS011;10732;51.472;6.466;2023-12-20T09:49:09;14.82;;;3.55;;
21148;SDS011;10732;51.472;6.466;2023-12-20T09:51:35;17.10;;;4.45;;
21148;SDS011;10732;51.472;6.466;2023-12-20T09:54:02;17.83;;;4.80;;
21148;SDS011;10732;51.472;6.466;2023-12-20T09:56:29;18.73;;;4.55;;
21148;SDS011;10732;51.472;6.466;2023-12-20T09:58:55;16.65;;;4.18;;
21148;SDS011;10732;51.472;6.466;2023-12-20T10:01:20;13.60;;;4.20;;
21148;SDS011;10732;51.472;6.466;2023-12-20T10:03:46;19.23;;;4.63;;
21148;SDS011;10732;51.472;6.466;2023-12-20T10:06:12;13.52;;;4.28;;
21148;SDS011;10732;51.472;6.466;2023-12-20T10:08:38;13.90;;;3.90;;
21148;SDS011;10732;51.472;6.466;2023-12-20T10:11:04;17.45;;;4.32;;
21148;SDS011;10732;51.472;6.466;2023-12-20T10:13:30;15.15;;;4.13;;
21148;SDS011;10732;51.472;6.466;2023-12-20T10:15:56;17.35;;;4.03;;
21148;SDS011;10732;51.472;6.466;2023-12-20T10:18:22;16.42;;;4.47;;
21148;SDS011;10732;51.472;6.466;2023-12-20T10:20:48;23.00;;;4.45;;
21148;SDS011;10732;51.472;6.466;2023-12-20T10:23:15;17.13;;;4.65;;
21148;SDS011;10732;51.472;6.466;2023-12-20T10:25:41;20.52;;;4.55;;
21148;SDS011;10732;51.472;6.466;2023-12-20T10:30:35;11.57;;;4.10;;
21148;SDS011;10732;51.472;6.466;2023-12-20T10:33:01;19.25;;;4.57;;
21148;SDS011;10732;51.472;6.466;2023-12-20T10:35:27;17.83;;;4.45;;
21148;SDS011;10732;51.472;6.466;2023-12-20T10:37:54;15.93;;;4.20;;
21148;SDS011;10732;51.472;6.466;2023-12-20T10:40:24;18.33;;;4.40;;
21148;SDS011;10732;51.472;6.466;2023-12-20T10:42:52;15.82;;;4.20;;
21148;SDS011;10732;51.472;6.466;2023-12-20T10:45:19;18.38;;;4.10;;
21148;SDS011;10732;51.472;6.466;2023-12-20T10:47:46;14.55;;;3.97;;
21148;SDS011;10732;51.472;6.466;2023-12-20T10:50:12;16.90;;;4.38;;
21148;SDS011;10732;51.472;6.466;2023-12-20T10:52:37;9.57;;;3.67;;
21148;SDS011;10732;51.472;6.466;2023-12-20T10:55:05;16.35;;;3.95;;
21148;SDS011;10732;51.472;6.466;2023-12-20T10:57:31;15.77;;;4.40;;
21148;SDS011;10732;51.472;6.466;2023-12-20T10:59:58;15.70;;;4.28;;
21148;SDS011;10732;51.472;6.466;2023-12-20T11:02:29;15.07;;;4.65;;
21148;SDS011;10732;51.472;6.466;2023-12-20T11:07:38;16.13;;;4.70;;
21148;SDS011;10732;51.472;6.466;2023-12-20T11:10:22;17.70;;;4.60;;
21148;SDS011;10732;51.472;6.466;2023-12-20T11:12:53;14.10;;;4.15;;
21148;SDS011;10732;51.472;6.466;2023-12-20T11:15:24;18.48;;;4.03;;
21148;SDS011;10732;51.472;6.466;2023-12-20T11:17:56;11.93;;;4.07;;
21148;SDS011;10732;51.472;6.466;2023-12-20T11:20:22;15.82;;;4.68;;
21148;SDS011;10732;51.472;6.466;2023-12-20T11:22:52;17.90;;;4.70;;
21148;SDS011;10732;51.472;6.466;2023-12-20T11:25:19;11.02;;;3.88;;
21148;SDS011;10732;51.472;6.466;2023-12-20T11:27:44;13.00;;;4.35;;
21148;SDS011;10732;51.472;6.466;2023-12-20T11:30:47;14.38;;;4.32;;
21148;SDS011;10732;51.472;6.466;2023-12-20T11:33:16;18.67;;;4.82;;
21148;SDS011;10732;51.472;6.466;2023-12-20T11:35:46;17.00;;;5.30;;
21148;SDS011;10732;51.472;6.466;2023-12-20T11:38:12;22.80;;;4.78;;
21148;SDS011;10732;51.472;6.466;2023-12-20T11:40:39;16.10;;;4.97;;
21148;SDS011;10732;51.472;6.466;2023-12-20T11:43:07;13.15;;;4.90;;
21148;SDS011;10732;51.472;6.466;2023-12-20T11:45:32;13.77;;;4.57;;
21148;SDS011;10732;51.472;6.466;2023-12-20T11:47:59;13.73;;;4.50;;
21148;SDS011;10732;51.472;6.466;2023-12-20T11:50:27;12.77;;;4.63;;
21148;SDS011;10732;51.472;6.466;2023-12-20T11:52:54;18.80;;;4.80;;
21148;SDS011;10732;51.472;6.466;2023-12-20T11:55:21;16.00;;;5.00;;
21148;SDS011;10732;51.472;6.466;2023-12-20T11:57:48;13.57;;;4.65;;
21148;SDS011;10732;51.472;6.466;2023-12-20T12:00:15;12.90;;;4.65;;
21148;SDS011;10732;51.472;6.466;2023-12-20T12:02:41;17.35;;;4.32;;
21148;SDS011;10732;51.472;6.466;2023-12-20T12:05:07;14.00;;;4.50;;
21148;SDS011;10732;51.472;6.466;2023-12-20T12:07:36;19.48;;;4.95;;
21148;SDS011;10732;51.472;6.466;2023-12-20T12:10:02;17.75;;;5.13;;
21148;SDS011;10732;51.472;6.466;2023-12-20T12:12:28;15.63;;;4.18;;
21148;SDS011;10732;51.472;6.466;2023-12-20T12:14:55;15.82;;;4.70;;
21148;SDS011;10732;51.472;6.466;2023-12-20T12:17:22;16.75;;;4.90;;
21148;SDS011;10732;51.472;6.466;2023-12-20T12:19:48;14.07;;;4.47;;
21148;SDS011;10732;51.472;6.466;2023-12-20T12:22:14;13.07;;;4.25;;
21148;SDS011;10732;51.472;6.466;2023-12-20T12:24:45;14.60;;;4.30;;
21148;SDS011;10732;51.472;6.466;2023-12-20T12:27:12;15.82;;;4.15;;
21148;SDS011;10732;51.472;6.466;2023-12-20T12:29:39;14.65;;;4.85;;
21148;SDS011;10732;51.472;6.466;2023-12-20T12:32:08;15.57;;;4.57;;
21148;SDS011;10732;51.472;6.466;2023-12-20T12:34:34;17.55;;;4.78;;
21148;SDS011;10732;51.472;6.466;2023-12-20T12:37:01;15.23;;;4.45;;
21148;SDS011;10732;51.472;6.466;2023-12-20T12:39:27;16.38;;;4.97;;
21148;SDS011;10732;51.472;6.466;2023-12-20T12:41:54;16.30;;;4.80;;
21148;SDS011;10732;51.472;6.466;2023-12-20T12:44:20;13.27;;;4.30;;
21148;SDS011;10732;51.472;6.466;2023-12-20T12:46:48;16.88;;;4.95;;
21148;SDS011;10732;51.472;6.466;2023-12-20T12:49:16;12.23;;;4.70;;
21148;SDS011;10732;51.472;6.466;2023-12-20T12:51:42;16.88;;;5.10;;
21148;SDS011;10732;51.472;6.466;2023-12-20T12:54:08;12.90;;;4.30;;
21148;SDS011;10732;51.472;6.466;2023-12-20T12:56:34;13.50;;;4.70;;
21148;SDS011;10732;51.472;6.466;2023-12-20T12:59:01;15.80;;;5.45;;
21148;SDS011;10732;51.472;6.466;2023-12-20T13:01:27;14.93;;;5.40;;
21148;SDS011;10732;51.472;6.466;2023-12-20T13:03:53;16.52;;;5.70;;
21148;SDS011;10732;51.472;6.466;2023-12-20T13:06:19;19.40;;;5.80;;
21148;SDS011;10732;51.472;6.466;2023-12-20T13:08:45;13.75;;;6.05;;
21148;SDS011;10732;51.472;6.466;2023-12-20T13:11:10;13.68;;;6.00;;
21148;SDS011;10732;51.472;6.466;2023-12-20T13:13:36;16.02;;;6.75;;
21148;SDS011;10732;51.472;6.466;2023-12-20T13:16:01;15.60;;;6.00;;
21148;SDS011;10732;51.472;6.466;2023-12-20T13:18:27;20.42;;;6.53;;
21148;SDS011;10732;51.472;6.466;2023-12-20T13:20:53;19.25;;;6.50;;
21148;SDS011;10732;51.472;6.466;2023-12-20T13:23:18;20.48;;;6.38;;
21148;SDS011;10732;51.472;6.466;2023-12-20T13:25:44;19.40;;;6.45;;
21148;SDS011;10732;51.472;6.466;2023-12-20T13:28:12;12.85;;;6.68;;
21148;SDS011;10732;51.472;6.466;2023-12-20T13:30:38;16.92;;;6.40;;
21148;SDS011;10732;51.472;6.466;2023-12-20T13:33:05;15.02;;;6.78;;
21148;SDS011;10732;51.472;6.466;2023-12-20T13:35:31;21.58;;;7.13;;
21148;SDS011;10732;51.472;6.466;2023-12-20T13:37:57;19.45;;;6.93;;
21148;SDS011;10732;51.472;6.466;2023-12-20T13:40:23;15.82;;;6.65;;
21148;SDS011;10732;51.472;6.466;2023-12-20T13:42:49;14.18;;;6.70;;
21148;SDS011;10732;51.472;6.466;2023-12-20T13:45:15;16.27;;;7.70;;
21148;SDS011;10732;51.472;6.466;2023-12-20T13:47:40;18.90;;;6.65;;
21148;SDS011;10732;51.472;6.466;2023-12-20T13:50:06;14.43;;;7.10;;
21148;SDS011;10732;51.472;6.466;2023-12-20T13:52:32;19.65;;;7.22;;
21148;SDS011;10732;51.472;6.466;2023-12-20T13:54:57;17.52;;;6.65;;
21148;SDS011;10732;51.472;6.466;2023-12-20T13:57:23;21.05;;;8.00;;
21148;SDS011;10732;51.472;6.466;2023-12-20T13:59:48;20.05;;;7.75;;
21148;SDS011;10732;51.472;6.466;2023-12-20T14:02:14;19.35;;;7.72;;
21148;SDS011;10732;51.472;6.466;2023-12-20T14:04:41;16.50;;;7.10;;
21148;SDS011;10732;51.472;6.466;2023-12-20T14:07:06;20.23;;;7.38;;
21148;SDS011;10732;51.472;6.466;2023-12-20T14:09:32;16.48;;;6.70;;
21148;SDS011;10732;51.472;6.466;2023-12-20T14:11:58;17.88;;;7.65;;
21148;SDS011;10732;51.472;6.466;2023-12-20T14:14:24;16.90;;;7.15;;
21148;SDS011;10732;51.472;6.466;2023-12-20T14:16:49;19.15;;;6.78;;
21148;SDS011;10732;51.472;6.466;2023-12-20T14:19:16;13.70;;;6.18;;
21148;SDS011;10732;51.472;6.466;2023-12-20T14:21:41;17.23;;;7.57;;
21148;SDS011;10732;51.472;6.466;2023-12-20T14:24:07;20.25;;;6.93;;
21148;SDS011;10732;51.472;6.466;2023-12-20T14:26:32;17.27;;;6.50;;
21148;SDS011;10732;51.472;6.466;2023-12-20T14:28:58;23.02;;;7.03;;
21148;SDS011;10732;51.472;6.466;2023-12-20T14:31:23;19.02;;;6.32;;